Time;durP1;ratioP1;P1;durP2;ratioP2;P2;SDS_P1;SDS_P2;PMS_P1;PMS_P2;Temp;Humidity;BMP_temperature;BMP_pressure;BME280_temperature;BME280_humidity;BME280_pressure;Samples;Min_cycle;Max_cycle;Signal;HPM_P1;HPM_P2
2023/09/19 00:00:24;;;;;;;2.58;1.13;;;15.40;99.90;;;;;;4933361;29;20218;-81
2023/09/19 00:02:57;;;;;;;1.90;0.98;;;15.60;99.90;;;;;;4927697;29;20208;-80
2023/09/19 00:05:27;;;;;;;1.33;1.23;;;15.60;99.90;;;;;;4938122;29;20243;-80
2023/09/19 00:07:54;;;;;;;2.75;1.48;;;15.70;99.90;;;;;;4929715;29;20240;-79
2023/09/19 00:10:24;;;;;;;3.17;1.13;;;15.90;99.90;;;;;;4935197;29;20290;-80
2023/09/19 00:12:51;;;;;;;3.50;1.75;;;15.70;99.90;;;;;;4931516;29;20295;-82
2023/09/19 00:15:18;;;;;;;2.50;1.48;;;15.80;99.90;;;;;;4940394;29;20690;-81
2023/09/19 00:17:45;;;;;;;4.38;1.92;;;15.90;99.90;;;;;;4938233;29;20263;-81
2023/09/19 00:20:15;;;;;;;3.92;1.95;;;15.90;99.90;;;;;;4938231;29;20289;-81
2023/09/19 00:22:42;;;;;;;2.70;2.00;;;15.90;99.90;;;;;;4935460;29;20206;-80
2023/09/19 00:25:11;;;;;;;3.92;2.22;;;15.90;99.90;;;;;;4939546;29;20615;-81
2023/09/19 00:27:41;;;;;;;5.28;2.40;;;15.90;99.90;;;;;;4939610;29;20234;-81
2023/09/19 00:30:14;;;;;;;4.93;2.33;;;15.90;99.90;;;;;;4938949;29;20207;-81
2023/09/19 00:32:41;;;;;;;3.17;2.13;;;15.90;99.90;;;;;;4940041;29;20206;-80
2023/09/19 00:35:09;;;;;;;4.47;2.25;;;15.70;99.90;;;;;;4940320;29;20265;-82
2023/09/19 00:37:39;;;;;;;3.70;2.10;;;15.90;99.90;;;;;;4939724;29;20226;-81
2023/09/19 00:40:10;;;;;;;2.38;2.00;;;15.80;99.90;;;;;;4933348;29;20279;-81
2023/09/19 00:42:37;;;;;;;3.35;2.13;;;15.80;99.90;;;;;;4939801;29;20215;-81
2023/09/19 00:45:06;;;;;;;2.90;2.10;;;15.80;99.90;;;;;;4939605;29;20676;-81
2023/09/19 00:47:33;;;;;;;2.78;2.50;;;15.80;99.90;;;;;;4932068;29;20231;-79
2023/09/19 00:50:00;;;;;;;4.80;2.40;;;15.90;99.90;;;;;;4932934;29;20207;-79
2023/09/19 00:52:28;;;;;;;4.25;2.50;;;15.90;99.90;;;;;;4927677;29;20215;-79
2023/09/19 00:54:56;;;;;;;3.97;2.58;;;15.90;99.90;;;;;;4938901;29;20234;-79
2023/09/19 00:57:24;;;;;;;5.55;2.80;;;15.90;99.90;;;;;;4938429;29;20231;-79
2023/09/19 00:59:54;;;;;;;4.60;2.78;;;16.00;99.90;;;;;;4939889;29;20320;-81
2023/09/19 01:02:22;;;;;;;4.90;3.25;;;16.00;99.90;;;;;;4938684;29;20209;-78
2023/09/19 01:04:49;;;;;;;5.85;3.42;;;16.10;99.90;;;;;;4933797;29;20570;-80
2023/09/19 01:07:16;;;;;;;4.30;3.30;;;16.10;99.90;;;;;;4938722;29;20713;-80
2023/09/19 01:09:43;;;;;;;9.65;3.88;;;16.10;99.90;;;;;;4941174;29;20247;-80
2023/09/19 01:12:17;;;;;;;6.50;3.90;;;16.10;99.90;;;;;;4935672;29;20290;-81
2023/09/19 01:14:52;;;;;;;5.00;4.40;;;16.20;99.90;;;;;;4933390;29;20243;-79
2023/09/19 01:17:27;;;;;;;7.20;4.93;;;16.10;99.90;;;;;;4931313;29;20218;-81
2023/09/19 01:20:12;;;;;;;6.68;4.45;;;16.10;99.90;;;;;;4939571;29;20659;-81
2023/09/19 01:22:51;;;;;;;7.00;4.50;;;16.00;99.90;;;;;;4939019;29;20203;-80
2023/09/19 01:25:45;;;;;;;6.55;4.38;;;16.00;99.90;;;;;;4930880;29;20445;-81
2023/09/19 01:28:25;;;;;;;6.40;4.60;;;16.00;99.90;;;;;;4937581;29;20227;-78
2023/09/19 01:30:58;;;;;;;6.13;4.85;;;15.90;99.90;;;;;;4937926;29;20209;-79
2023/09/19 01:33:26;;;;;;;9.25;5.07;;;15.90;99.90;;;;;;4927800;29;20235;-79
2023/09/19 01:35:58;;;;;;;7.97;4.57;;;16.10;99.90;;;;;;4933377;29;20207;-78
2023/09/19 01:38:25;;;;;;;8.90;5.10;;;16.00;99.90;;;;;;4928343;29;20243;-79
2023/09/19 01:41:04;;;;;;;7.28;5.00;;;16.00;99.90;;;;;;4933427;29;20214;-81
2023/09/19 01:43:35;;;;;;;7.60;4.63;;;15.80;99.90;;;;;;4935353;29;20235;-81
2023/09/19 01:46:10;;;;;;;10.40;5.22;;;16.00;99.90;;;;;;4935324;29;20211;-81
2023/09/19 01:48:43;;;;;;;6.35;4.35;;;16.00;99.90;;;;;;4936705;29;20682;-81
2023/09/19 01:51:12;;;;;;;7.93;4.90;;;16.10;99.90;;;;;;4937892;29;20682;-80
2023/09/19 01:53:51;;;;;;;6.57;4.40;;;16.20;99.90;;;;;;4932505;29;20217;-81
2023/09/19 01:56:24;;;;;;;6.35;4.13;;;16.20;99.90;;;;;;4939044;29;20238;-81
2023/09/19 01:58:57;;;;;;;6.03;3.67;;;16.30;99.90;;;;;;4933056;29;20762;-81
2023/09/19 02:01:27;;;;;;;8.90;3.85;;;16.30;99.90;;;;;;4937214;29;20229;-80
2023/09/19 02:03:56;;;;;;;5.50;3.53;;;16.30;99.90;;;;;;4938926;29;20564;-81
2023/09/19 02:06:25;;;;;;;6.28;3.40;;;16.30;99.90;;;;;;4939063;29;20671;-81
2023/09/19 02:08:52;;;;;;;6.82;3.10;;;16.40;99.90;;;;;;4939562;29;20645;-81
2023/09/19 02:11:18;;;;;;;9.73;3.70;;;16.40;99.90;;;;;;4938384;28;20823;-80
2023/09/19 02:13:45;;;;;;;5.15;3.30;;;16.30;99.90;;;;;;4934122;29;20262;-81
2023/09/19 02:16:12;;;;;;;9.38;3.83;;;16.40;99.90;;;;;;4935257;29;20233;-80
2023/09/19 02:18:40;;;;;;;8.05;3.78;;;16.40;99.90;;;;;;4931925;29;20686;-81
2023/09/19 02:21:09;;;;;;;7.78;3.90;;;16.50;99.90;;;;;;4939252;29;20235;-83
2023/09/19 02:23:36;;;;;;;6.75;3.90;;;16.40;99.90;;;;;;4928086;29;20212;-80
2023/09/19 02:26:03;;;;;;;10.55;3.80;;;16.30;99.90;;;;;;4935722;29;20603;-79
2023/09/19 02:28:31;;;;;;;5.18;4.28;;;16.40;99.90;;;;;;4938642;29;20269;-81
2023/09/19 02:30:58;;;;;;;9.18;4.18;;;16.30;99.90;;;;;;4931318;29;20212;-80
2023/09/19 02:33:25;;;;;;;9.75;4.60;;;16.30;99.90;;;;;;4929852;29;20232;-80
2023/09/19 02:35:58;;;;;;;7.93;4.15;;;16.30;99.90;;;;;;4932233;29;20239;-81
2023/09/19 02:38:25;;;;;;;8.52;4.25;;;16.40;99.90;;;;;;4936693;29;20262;-80
2023/09/19 02:40:52;;;;;;;8.77;4.88;;;16.40;99.90;;;;;;4933057;29;20226;-79
2023/09/19 02:43:20;;;;;;;12.98;7.03;;;16.40;99.90;;;;;;4926326;29;20222;-80
2023/09/19 02:45:49;;;;;;;7.88;4.68;;;16.30;99.90;;;;;;4939071;29;20626;-81
2023/09/19 02:48:16;;;;;;;7.35;4.57;;;16.30;99.90;;;;;;4938527;28;20226;-85
2023/09/19 02:50:44;;;;;;;5.53;4.32;;;16.40;99.90;;;;;;4937029;29;20214;-81
2023/09/19 02:53:13;;;;;;;6.80;4.22;;;16.20;99.90;;;;;;4938335;29;20211;-80
2023/09/19 02:55:41;;;;;;;8.77;4.50;;;16.00;99.90;;;;;;4938918;29;20672;-82
2023/09/19 02:58:11;;;;;;;8.23;4.07;;;16.00;99.90;;;;;;4930602;29;20231;-81
2023/09/19 03:00:39;;;;;;;7.07;4.32;;;16.10;99.90;;;;;;4923787;29;20306;-80
2023/09/19 03:03:07;;;;;;;7.97;4.80;;;16.10;99.90;;;;;;4932179;29;20218;-80
2023/09/19 03:05:35;;;;;;;8.13;4.20;;;16.10;99.90;;;;;;4931396;29;20194;-81
2023/09/19 03:08:02;;;;;;;8.25;4.40;;;16.00;99.90;;;;;;4936537;29;20230;-81
2023/09/19 03:10:30;;;;;;;8.82;4.60;;;16.10;99.90;;;;;;4930105;29;20215;-80
2023/09/19 03:12:59;;;;;;;6.00;4.10;;;16.10;99.90;;;;;;4933528;29;20208;-81
2023/09/19 03:15:26;;;;;;;6.78;4.15;;;16.10;99.90;;;;;;4939948;29;20785;-79
2023/09/19 03:17:53;;;;;;;4.75;3.95;;;16.10;99.90;;;;;;4935329;29;20223;-80
2023/09/19 03:20:20;;;;;;;7.03;4.45;;;16.00;99.90;;;;;;4940515;29;20202;-80
2023/09/19 03:22:47;;;;;;;7.18;3.95;;;16.00;99.90;;;;;;4936653;29;20219;-80
2023/09/19 03:25:15;;;;;;;8.02;4.10;;;16.00;99.90;;;;;;4929963;29;20524;-79
2023/09/19 03:27:43;;;;;;;5.80;4.10;;;16.00;99.90;;;;;;4940313;29;20242;-79
2023/09/19 03:30:13;;;;;;;8.50;5.15;;;16.10;99.90;;;;;;4940282;29;20206;-79
2023/09/19 03:32:46;;;;;;;7.28;4.78;;;16.10;99.90;;;;;;4934772;29;20249;-78
2023/09/19 03:35:14;;;;;;;8.18;4.60;;;16.00;99.90;;;;;;4940096;29;20311;-78
2023/09/19 03:37:41;;;;;;;9.70;5.40;;;16.00;99.90;;;;;;4941170;29;20235;-80
2023/09/19 03:40:10;;;;;;;7.53;5.00;;;16.00;99.90;;;;;;4942356;29;20211;-80
2023/09/19 03:42:39;;;;;;;9.65;5.57;;;16.00;99.90;;;;;;4941610;29;20217;-80
2023/09/19 03:45:11;;;;;;;8.15;5.05;;;15.90;99.90;;;;;;4934528;29;20204;-80
2023/09/19 03:47:38;;;;;;;9.18;5.55;;;15.90;99.90;;;;;;4940994;29;20235;-80
2023/09/19 03:50:07;;;;;;;10.05;5.43;;;15.90;99.90;;;;;;4932482;29;20404;-80
2023/09/19 03:52:34;;;;;;;8.98;5.68;;;15.80;99.90;;;;;;4929743;29;20262;-79
2023/09/19 03:55:02;;;;;;;7.70;5.38;;;15.80;99.90;;;;;;4940160;29;20231;-78
2023/09/19 03:57:29;;;;;;;9.95;5.40;;;15.60;99.90;;;;;;4941868;29;20227;-80
2023/09/19 03:59:56;;;;;;;10.45;5.63;;;15.70;99.90;;;;;;4942262;29;20289;-80
2023/09/19 04:02:24;;;;;;;9.98;5.82;;;15.70;99.90;;;;;;4941931;29;20659;-79
2023/09/19 04:04:52;;;;;;;12.98;6.32;;;15.70;99.90;;;;;;4941208;29;20661;-80
2023/09/19 04:07:22;;;;;;;10.25;6.05;;;15.70;99.90;;;;;;4938994;29;20223;-79
2023/09/19 04:09:49;;;;;;;9.52;5.85;;;15.50;99.90;;;;;;4940292;29;20301;-80
2023/09/19 04:12:17;;;;;;;8.82;5.53;;;15.50;99.90;;;;;;4933698;29;20710;-80
2023/09/19 04:14:45;;;;;;;9.38;6.00;;;15.50;99.90;;;;;;4940595;29;20254;-79
2023/09/19 04:17:12;;;;;;;11.00;5.95;;;15.50;99.90;;;;;;4931841;29;20322;-81
2023/09/19 04:19:41;;;;;;;16.23;6.22;;;15.60;99.90;;;;;;4934351;29;20207;-79
2023/09/19 04:22:09;;;;;;;9.52;6.38;;;15.50;99.90;;;;;;4941382;29;20211;-80
2023/09/19 04:24:35;;;;;;;11.20;6.22;;;15.40;99.90;;;;;;4933220;29;20218;-77
2023/09/19 04:27:02;;;;;;;11.40;5.70;;;15.50;99.90;;;;;;4930893;29;20315;-78
2023/09/19 04:29:29;;;;;;;10.10;5.93;;;15.40;99.90;;;;;;4940289;29;20238;-80
2023/09/19 04:31:57;;;;;;;9.13;5.75;;;15.50;99.90;;;;;;4940886;29;20241;-80
2023/09/19 04:34:24;;;;;;;11.30;5.70;;;15.50;99.90;;;;;;4940634;29;20215;-80
2023/09/19 04:36:52;;;;;;;13.48;5.95;;;15.40;99.90;;;;;;4940726;29;20231;-80
2023/09/19 04:39:20;;;;;;;10.43;5.78;;;15.30;99.90;;;;;;4940997;29;20787;-80
2023/09/19 04:41:47;;;;;;;13.82;6.30;;;15.30;99.90;;;;;;4937189;29;20210;-80
2023/09/19 04:44:14;;;;;;;8.85;5.80;;;15.40;99.90;;;;;;4940519;29;20207;-81
2023/09/19 04:46:41;;;;;;;8.70;6.40;;;15.30;99.90;;;;;;4939210;29;20644;-79
2023/09/19 04:49:08;;;;;;;9.75;5.82;;;15.30;99.90;;;;;;4940775;29;20298;-79
2023/09/19 04:51:36;;;;;;;14.40;6.38;;;15.30;99.90;;;;;;4940360;29;20211;-80
2023/09/19 04:54:05;;;;;;;14.13;6.35;;;15.30;99.90;;;;;;4925851;29;20250;-80
2023/09/19 04:56:32;;;;;;;14.35;6.53;;;15.30;99.90;;;;;;4939639;29;20341;-80
2023/09/19 04:58:58;;;;;;;17.70;6.43;;;15.20;99.90;;;;;;4941270;29;20214;-80
2023/09/19 05:01:25;;;;;;;9.25;6.00;;;15.20;99.90;;;;;;4940370;29;20227;-80
2023/09/19 05:03:52;;;;;;;9.07;6.25;;;15.20;99.90;;;;;;4943869;29;20233;-78
2023/09/19 05:06:20;;;;;;;12.60;6.25;;;15.20;99.90;;;;;;4942193;29;20294;-79
2023/09/19 05:08:49;;;;;;;9.57;5.72;;;15.20;99.90;;;;;;4938852;29;20230;-80
2023/09/19 05:11:18;;;;;;;12.77;6.93;;;15.20;99.90;;;;;;4937125;29;20211;-78
2023/09/19 05:13:44;;;;;;;14.70;6.32;;;15.20;99.90;;;;;;4946616;29;20604;-77
2023/09/19 05:16:12;;;;;;;9.93;5.97;;;15.10;99.90;;;;;;4937837;29;20624;-79
2023/09/19 05:18:39;;;;;;;15.73;6.13;;;15.20;99.90;;;;;;4938565;29;20294;-80
2023/09/19 05:21:06;;;;;;;13.15;5.82;;;15.20;99.90;;;;;;4938538;29;20671;-80
2023/09/19 05:23:33;;;;;;;11.00;5.60;;;15.10;99.90;;;;;;4939517;29;20571;-80
2023/09/19 05:25:59;;;;;;;14.35;6.13;;;15.10;99.90;;;;;;4939152;29;20290;-77
2023/09/19 05:28:28;;;;;;;9.60;5.60;;;15.20;99.90;;;;;;4952482;29;20273;-80
2023/09/19 05:30:55;;;;;;;11.00;5.43;;;15.20;99.90;;;;;;4938727;29;20214;-80
2023/09/19 05:33:21;;;;;;;9.10;5.85;;;15.30;99.90;;;;;;4938882;29;20210;-79
2023/09/19 05:35:49;;;;;;;13.45;6.05;;;15.30;99.90;;;;;;4937831;29;20326;-80
2023/09/19 05:38:18;;;;;;;10.07;5.10;;;15.10;99.90;;;;;;4938394;29;20679;-79
2023/09/19 05:40:46;;;;;;;11.88;6.13;;;15.20;99.90;;;;;;4939948;29;20238;-78
2023/09/19 05:43:14;;;;;;;10.88;6.28;;;15.20;99.90;;;;;;4941902;29;20210;-79
2023/09/19 05:45:42;;;;;;;12.63;6.00;;;15.20;99.90;;;;;;4939063;29;20199;-79
2023/09/19 05:48:11;;;;;;;8.45;4.93;;;15.20;99.90;;;;;;4938354;29;20229;-79
2023/09/19 05:50:38;;;;;;;8.52;5.72;;;15.20;99.90;;;;;;4938852;29;20217;-78
2023/09/19 05:53:05;;;;;;;10.05;4.93;;;15.20;99.90;;;;;;4938684;29;20207;-78
2023/09/19 05:55:32;;;;;;;10.68;4.65;;;15.20;99.90;;;;;;4934873;29;20242;-79
2023/09/19 05:57:59;;;;;;;10.50;5.05;;;15.10;99.90;;;;;;4937840;29;20242;-78
2023/09/19 06:00:27;;;;;;;13.68;4.88;;;15.10;99.90;;;;;;4942654;29;20230;-79
2023/09/19 06:02:57;;;;;;;12.90;5.25;;;15.10;99.90;;;;;;4947310;29;20206;-79
2023/09/19 06:05:26;;;;;;;12.35;4.95;;;15.10;99.90;;;;;;4944271;29;20222;-80
2023/09/19 06:07:53;;;;;;;10.30;4.63;;;15.20;99.90;;;;;;4948196;29;20219;-78
2023/09/19 06:10:22;;;;;;;9.20;4.50;;;15.30;99.90;;;;;;4943580;29;20217;-79
2023/09/19 06:12:49;;;;;;;7.70;4.07;;;15.40;99.90;;;;;;4935387;29;20205;-78
2023/09/19 06:15:18;;;;;;;9.40;4.68;;;15.50;99.90;;;;;;4935333;29;20223;-79
2023/09/19 06:17:48;;;;;;;6.75;4.13;;;15.50;99.90;;;;;;4931300;29;20231;-79
2023/09/19 06:20:17;;;;;;;10.90;4.97;;;15.50;99.90;;;;;;4941043;29;20214;-78
2023/09/19 06:22:45;;;;;;;9.90;4.65;;;15.40;99.90;;;;;;4941477;29;20215;-77
2023/09/19 06:25:19;;;;;;;10.23;4.65;;;15.40;99.90;;;;;;4936828;29;20713;-78
2023/09/19 06:27:46;;;;;;;9.02;4.20;;;15.50;99.90;;;;;;4945961;29;20227;-79
2023/09/19 06:30:13;;;;;;;9.70;4.75;;;15.50;99.90;;;;;;4939961;29;20212;-78
2023/09/19 06:32:43;;;;;;;13.70;5.00;;;15.50;99.90;;;;;;4943561;29;20202;-77
2023/09/19 06:35:11;;;;;;;12.90;4.70;;;15.40;99.90;;;;;;4944014;29;20230;-77
2023/09/19 06:37:40;;;;;;;9.32;4.47;;;15.40;99.90;;;;;;4942525;29;20226;-78
2023/09/19 06:40:13;;;;;;;8.07;4.45;;;15.40;99.90;;;;;;4943847;29;20203;-77
2023/09/19 06:42:40;;;;;;;10.35;4.38;;;15.50;99.90;;;;;;4935484;29;20206;-79
2023/09/19 06:45:08;;;;;;;10.50;4.05;;;15.50;99.90;;;;;;4940977;29;20214;-76
2023/09/19 06:47:36;;;;;;;11.30;4.20;;;15.50;99.90;;;;;;4929908;29;20228;-77
2023/09/19 06:50:05;;;;;;;10.32;4.40;;;15.40;99.90;;;;;;4942780;29;20218;-76
2023/09/19 06:52:32;;;;;;;10.30;3.90;;;15.50;99.90;;;;;;4939961;29;20246;-77
2023/09/19 06:55:03;;;;;;;10.15;3.70;;;15.50;99.90;;;;;;4940256;29;20221;-77
2023/09/19 06:57:30;;;;;;;9.65;3.97;;;15.50;99.90;;;;;;4932597;29;20266;-75
2023/09/19 06:59:57;;;;;;;11.00;4.00;;;15.50;99.90;;;;;;4939718;29;20210;-75
2023/09/19 07:02:24;;;;;;;11.35;3.47;;;15.50;99.90;;;;;;4940550;29;20291;-77
2023/09/19 07:04:51;;;;;;;10.05;4.03;;;15.50;99.90;;;;;;4934847;29;20229;-80
2023/09/19 07:07:17;;;;;;;10.77;3.85;;;15.50;99.90;;;;;;4937910;29;20223;-78
2023/09/19 07:09:44;;;;;;;9.63;3.17;;;15.70;99.90;;;;;;4946481;29;20203;-80
2023/09/19 07:12:13;;;;;;;8.50;2.97;;;15.70;99.90;;;;;;4934378;29;20214;-80
2023/09/19 07:14:40;;;;;;;10.73;2.85;;;15.80;99.90;;;;;;4940000;29;20667;-78
2023/09/19 07:17:07;;;;;;;7.68;2.67;;;15.70;99.90;;;;;;4941078;29;20290;-80
2023/09/19 07:19:34;;;;;;;12.10;2.80;;;15.70;99.90;;;;;;4942334;29;20726;-78
2023/09/19 07:22:02;;;;;;;12.55;2.38;;;15.70;99.90;;;;;;4941179;29;20215;-76
2023/09/19 07:24:29;;;;;;;10.55;2.95;;;15.80;99.90;;;;;;4940227;29;20215;-78
2023/09/19 07:26:56;;;;;;;6.38;1.92;;;15.80;99.90;;;;;;4947504;29;20722;-79
2023/09/19 07:29:26;;;;;;;10.27;2.75;;;15.80;99.90;;;;;;4940568;29;20733;-77
2023/09/19 07:31:52;;;;;;;8.98;2.83;;;15.90;99.90;;;;;;4941175;29;20214;-78
2023/09/19 07:34:20;;;;;;;10.50;2.53;;;16.00;99.90;;;;;;4942239;29;20298;-79
2023/09/19 07:36:47;;;;;;;7.43;1.98;;;16.00;99.90;;;;;;4940780;29;20223;-79
2023/09/19 07:39:14;;;;;;;9.55;2.88;;;16.00;99.90;;;;;;4939797;29;20254;-77
2023/09/19 07:41:41;;;;;;;7.88;1.95;;;15.90;99.90;;;;;;4940453;29;20234;-76
2023/09/19 07:44:09;;;;;;;10.93;1.77;;;16.10;99.90;;;;;;4941122;29;20227;-79
2023/09/19 07:46:38;;;;;;;5.57;1.90;;;16.10;99.90;;;;;;4939117;29;20207;-79
2023/09/19 07:49:05;;;;;;;5.18;1.70;;;16.10;99.90;;;;;;4943607;29;20200;-78
2023/09/19 07:51:32;;;;;;;7.40;2.30;;;16.20;99.90;;;;;;4941183;29;20233;-78
2023/09/19 07:53:59;;;;;;;10.90;3.22;;;16.40;99.90;;;;;;4942857;29;20221;-79
2023/09/19 07:56:27;;;;;;;7.50;2.05;;;16.30;99.90;;;;;;4946996;29;20575;-80
2023/09/19 07:58:54;;;;;;;9.25;2.60;;;16.30;99.90;;;;;;4935860;29;20203;-80
2023/09/19 08:01:23;;;;;;;8.40;2.22;;;16.20;99.90;;;;;;4943692;29;20238;-80
2023/09/19 08:03:51;;;;;;;9.00;2.20;;;16.20;99.90;;;;;;4945290;29;20270;-79
2023/09/19 08:06:19;;;;;;;6.55;2.10;;;16.20;99.90;;;;;;4946041;29;20293;-79
2023/09/19 08:08:45;;;;;;;11.70;2.97;;;16.20;99.90;;;;;;4947435;29;20235;-79
2023/09/19 08:11:12;;;;;;;7.10;1.65;;;16.20;99.90;;;;;;4949227;29;20735;-79
2023/09/19 08:13:43;;;;;;;8.18;2.20;;;16.20;99.90;;;;;;4946098;29;20203;-79
2023/09/19 08:16:10;;;;;;;8.85;2.30;;;16.30;99.90;;;;;;4946576;29;20460;-79
2023/09/19 08:18:37;;;;;;;8.77;2.20;;;16.30;99.90;;;;;;4947127;29;20229;-80
2023/09/19 08:21:07;;;;;;;9.57;2.33;;;16.30;99.90;;;;;;4946973;29;20219;-80
2023/09/19 08:23:34;;;;;;;4.63;1.90;;;16.30;99.90;;;;;;4945633;29;20235;-78
2023/09/19 08:26:06;;;;;;;5.18;2.00;;;16.50;99.90;;;;;;4944001;29;20722;-79
2023/09/19 08:28:33;;;;;;;8.77;2.45;;;16.50;99.90;;;;;;4944909;29;20298;-79
2023/09/19 08:31:04;;;;;;;7.03;2.42;;;16.60;99.90;;;;;;4945196;29;20228;-76
2023/09/19 08:33:32;;;;;;;9.20;2.03;;;16.60;99.90;;;;;;4945513;29;20203;-77
2023/09/19 08:35:59;;;;;;;11.30;2.30;;;16.70;99.90;;;;;;4938724;29;20267;-79
2023/09/19 08:38:29;;;;;;;8.48;2.60;;;16.80;99.90;;;;;;4944748;29;20245;-79
2023/09/19 08:40:58;;;;;;;9.35;1.90;;;16.90;99.90;;;;;;4946214;29;20273;-78
2023/09/19 08:43:25;;;;;;;5.65;1.77;;;17.00;99.90;;;;;;4945020;29;20210;-78
2023/09/19 08:45:58;;;;;;;7.28;1.80;;;17.00;99.90;;;;;;4944117;29;20241;-79
2023/09/19 08:48:28;;;;;;;6.05;2.30;;;17.00;99.90;;;;;;4944353;29;20262;-79
2023/09/19 08:51:02;;;;;;;8.23;1.92;;;17.20;99.90;;;;;;4943666;29;20659;-80
2023/09/19 08:53:37;;;;;;;8.02;2.28;;;17.20;99.90;;;;;;4946825;29;20663;-80
2023/09/19 08:56:09;;;;;;;7.55;1.90;;;17.20;99.90;;;;;;4943654;29;20343;-79
2023/09/19 08:58:44;;;;;;;8.93;2.22;;;17.40;99.90;;;;;;4937203;29;20234;-79
2023/09/19 09:01:14;;;;;;;10.82;2.55;;;17.40;99.90;;;;;;4944438;29;20206;-80
2023/09/19 09:03:46;;;;;;;7.38;2.22;;;17.50;99.90;;;;;;4945927;29;20247;-80
2023/09/19 09:06:16;;;;;;;7.55;1.80;;;17.60;99.90;;;;;;4945452;29;20274;-80
2023/09/19 09:08:45;;;;;;;7.18;2.33;;;17.70;99.90;;;;;;4939978;29;20230;-79
2023/09/19 09:11:12;;;;;;;9.00;1.92;;;17.50;99.90;;;;;;4944759;29;20207;-80
2023/09/19 09:13:41;;;;;;;5.47;2.03;;;17.40;99.90;;;;;;4943825;29;20247;-80
2023/09/19 09:16:08;;;;;;;7.53;1.90;;;17.20;99.90;;;;;;4944436;29;20226;-79
2023/09/19 09:18:35;;;;;;;9.30;2.15;;;17.30;99.90;;;;;;4935719;29;20235;-77
2023/09/19 09:21:01;;;;;;;7.95;1.95;;;17.50;99.90;;;;;;4945138;29;20207;-79
2023/09/19 09:23:30;;;;;;;5.78;1.70;;;17.50;99.90;;;;;;4945297;29;20207;-78
2023/09/19 09:26:02;;;;;;;8.27;1.63;;;17.60;99.90;;;;;;4944313;29;20274;-78
2023/09/19 09:28:30;;;;;;;7.07;2.03;;;17.50;99.90;;;;;;4935675;29;20725;-78
2023/09/19 09:30:57;;;;;;;7.82;1.92;;;17.70;99.90;;;;;;4942305;29;20203;-77
2023/09/19 09:33:25;;;;;;;7.15;1.75;;;17.90;99.90;;;;;;4944233;29;20225;-78
2023/09/19 09:35:56;;;;;;;6.38;1.95;;;17.90;99.90;;;;;;4943667;29;20211;-77
2023/09/19 09:38:27;;;;;;;5.03;1.90;;;18.00;99.90;;;;;;4943119;29;20243;-77
2023/09/19 09:40:59;;;;;;;5.68;1.60;;;18.20;99.90;;;;;;4943399;29;20230;-79
2023/09/19 09:43:35;;;;;;;6.60;1.83;;;18.10;99.90;;;;;;4937754;29;20254;-79
2023/09/19 09:49:19;;;;;;;5.10;1.77;;;18.20;99.90;;;;;;4940225;29;20203;-78
2023/09/19 09:51:57;;;;;;;4.40;2.10;;;18.20;99.90;;;;;;4936415;29;20211;-78
2023/09/19 09:54:27;;;;;;;5.95;1.80;;;18.30;99.90;;;;;;4943338;29;20639;-78
2023/09/19 09:56:58;;;;;;;5.97;2.05;;;18.30;99.90;;;;;;4939312;29;20239;-78
2023/09/19 09:59:47;;;;;;;3.58;1.67;;;18.30;99.90;;;;;;4943718;29;20199;-78
2023/09/19 10:02:16;;;;;;;9.60;2.53;;;18.30;99.90;;;;;;4939498;29;20218;-78
2023/09/19 10:04:51;;;;;;;5.32;2.08;;;18.30;99.90;;;;;;4943438;29;20279;-77
2023/09/19 10:07:32;;;;;;;8.20;2.55;;;18.50;99.90;;;;;;4942488;29;20227;-75
2023/09/19 10:10:09;;;;;;;6.53;2.28;;;18.80;99.90;;;;;;4939824;29;20220;-77
2023/09/19 10:12:39;;;;;;;11.10;2.42;;;18.80;99.90;;;;;;4931845;29;20230;-77
2023/09/19 10:15:10;;;;;;;11.20;2.70;;;18.70;99.90;;;;;;4939356;29;20270;-78
2023/09/19 10:17:39;;;;;;;7.55;2.25;;;18.50;99.90;;;;;;4930401;29;20234;-76
2023/09/19 10:20:18;;;;;;;8.15;1.98;;;18.80;99.90;;;;;;4940089;29;20215;-77
2023/09/19 10:22:56;;;;;;;10.85;2.22;;;18.60;99.90;;;;;;4938894;29;20583;-77
2023/09/19 10:25:26;;;;;;;10.00;2.17;;;18.80;99.90;;;;;;4934162;29;20306;-77
2023/09/19 10:27:55;;;;;;;5.38;2.42;;;18.90;99.90;;;;;;4940230;29;20215;-77
2023/09/19 10:30:24;;;;;;;7.22;2.22;;;18.80;99.90;;;;;;4937965;29;20678;-77
2023/09/19 10:33:02;;;;;;;5.30;2.20;;;18.80;99.90;;;;;;4939485;29;20302;-77
2023/09/19 10:35:29;;;;;;;8.40;2.40;;;19.10;99.90;;;;;;4938421;29;20214;-77
2023/09/19 10:38:00;;;;;;;5.72;2.10;;;19.10;99.90;;;;;;4938762;29;20302;-77
2023/09/19 10:40:30;;;;;;;9.90;2.50;;;18.90;99.90;;;;;;4937999;29;20211;-77
2023/09/19 10:43:05;;;;;;;7.32;2.30;;;19.40;99.90;;;;;;4939502;29;20250;-78
2023/09/19 10:45:38;;;;;;;8.50;2.22;;;19.50;99.90;;;;;;4935874;29;20291;-76
2023/09/19 10:48:07;;;;;;;6.80;2.30;;;19.50;99.90;;;;;;4937225;29;20230;-77
2023/09/19 10:50:38;;;;;;;7.88;2.83;;;19.70;99.90;;;;;;4939358;29;20290;-76
2023/09/19 10:53:08;;;;;;;7.55;2.40;;;19.60;99.90;;;;;;4938726;29;20214;-77
2023/09/19 10:55:36;;;;;;;6.07;2.20;;;19.60;99.90;;;;;;4932035;29;20207;-77
2023/09/19 10:58:10;;;;;;;9.23;2.38;;;19.50;99.90;;;;;;4937464;29;20278;-77
2023/09/19 11:00:55;;;;;;;6.18;2.17;;;19.80;99.90;;;;;;4930645;29;20214;-76
2023/09/19 11:03:30;;;;;;;9.52;2.33;;;20.10;99.90;;;;;;4938542;29;20256;-77
2023/09/19 11:06:09;;;;;;;5.40;2.45;;;19.90;99.90;;;;;;4938726;29;20210;-76
2023/09/19 11:09:04;;;;;;;8.18;2.50;;;20.00;99.90;;;;;;4937189;29;20721;-77
2023/09/19 11:11:50;;;;;;;6.95;2.53;;;19.90;99.90;;;;;;4938549;29;20658;-78
2023/09/19 11:14:52;;;;;;;7.88;2.85;;;19.60;99.90;;;;;;4938471;29;20245;-76
2023/09/19 11:17:35;;;;;;;7.82;2.30;;;19.70;99.90;;;;;;4900432;29;20231;-78
2023/09/19 11:20:41;;;;;;;10.38;3.05;;;19.50;99.90;;;;;;4895805;29;20268;-77
2023/09/19 11:23:25;;;;;;;8.25;2.58;;;19.90;99.90;;;;;;4902930;29;20207;-77
2023/09/19 11:25:54;;;;;;;5.28;2.67;;;20.00;99.90;;;;;;4927256;29;20663;-77
2023/09/19 11:28:35;;;;;;;5.82;2.55;;;20.10;99.90;;;;;;4937296;29;20219;-77
2023/09/19 11:31:36;;;;;;;5.72;2.70;;;20.20;99.90;;;;;;4937506;29;20621;-78
2023/09/19 11:34:47;;;;;;;9.88;2.67;;;20.20;99.90;;;;;;4939845;29;20518;-78
2023/09/19 11:38:15;;;;;;;6.25;2.60;;;19.90;99.90;;;;;;4939026;29;20231;-78
2023/09/19 11:40:54;;;;;;;9.80;3.10;;;20.10;99.90;;;;;;4941753;28;20233;-77
2023/09/19 11:43:35;;;;;;;6.38;2.35;;;20.40;99.90;;;;;;4941838;29;20238;-77
2023/09/19 11:46:04;;;;;;;7.82;2.80;;;20.50;99.90;;;;;;4941853;29;20584;-78
2023/09/19 11:48:35;;;;;;;8.60;2.75;;;20.50;99.90;;;;;;4941917;29;20338;-76
2023/09/19 11:51:15;;;;;;;6.22;2.67;;;20.00;99.90;;;;;;4941543;29;20237;-77
2023/09/19 11:53:44;;;;;;;6.80;2.80;;;19.90;99.90;;;;;;4941612;29;20215;-77
2023/09/19 11:56:11;;;;;;;8.23;2.47;;;19.90;99.90;;;;;;4942904;29;20309;-77
2023/09/19 11:58:39;;;;;;;6.65;2.53;;;20.00;99.90;;;;;;4945981;29;20222;-77
2023/09/19 12:01:12;;;;;;;8.50;3.67;;;19.70;99.90;;;;;;4944745;29;20266;-78
2023/09/19 12:03:43;;;;;;;5.55;2.45;;;19.50;99.90;;;;;;4951732;29;20561;-78
2023/09/19 12:06:15;;;;;;;6.63;2.70;;;19.50;99.90;;;;;;4943497;29;20636;-78
2023/09/19 12:08:43;;;;;;;8.32;2.70;;;20.00;99.90;;;;;;4941112;29;20757;-81
2023/09/19 12:11:17;;;;;;;6.07;2.17;;;20.10;99.90;;;;;;4933533;29;20218;-80
2023/09/19 12:13:46;;;;;;;5.40;2.20;;;20.50;99.90;;;;;;4928751;29;20305;-80
2023/09/19 12:16:15;;;;;;;4.78;2.05;;;20.60;99.90;;;;;;4939445;29;20242;-80
2023/09/19 12:18:44;;;;;;;6.82;2.60;;;20.50;99.90;;;;;;4941448;29;20605;-81
2023/09/19 12:21:24;;;;;;;8.00;2.45;;;20.20;99.90;;;;;;4932148;29;20211;-79
2023/09/19 12:24:05;;;;;;;7.18;2.92;;;20.00;99.90;;;;;;4935858;29;20222;-79
2023/09/19 12:26:41;;;;;;;6.05;2.45;;;19.80;99.90;;;;;;4932539;29;20234;-78
2023/09/19 12:29:15;;;;;;;7.80;2.45;;;19.90;99.90;;;;;;4933010;29;20206;-78
2023/09/19 12:31:50;;;;;;;6.97;2.75;;;20.00;99.90;;;;;;4928288;29;20286;-78
2023/09/19 12:34:19;;;;;;;8.23;2.85;;;19.90;99.90;;;;;;4939881;29;20202;-78
2023/09/19 12:36:48;;;;;;;4.72;2.63;;;20.10;99.90;;;;;;4939298;29;20714;-77
2023/09/19 12:39:25;;;;;;;5.00;2.38;;;19.70;99.90;;;;;;4939265;29;20727;-79
2023/09/19 12:41:53;;;;;;;5.88;3.08;;;19.80;99.90;;;;;;4934238;29;20224;-78
2023/09/19 12:44:20;;;;;;;7.72;3.20;;;19.70;99.90;;;;;;4930858;29;20254;-80
2023/09/19 12:46:47;;;;;;;6.68;2.47;;;19.80;99.90;;;;;;4935412;29;20297;-80
2023/09/19 12:49:21;;;;;;;7.40;3.05;;;19.80;99.90;;;;;;4939070;29;20199;-81
2023/09/19 12:51:50;;;;;;;6.85;3.00;;;19.80;99.90;;;;;;4940544;29;20210;-80
2023/09/19 12:54:17;;;;;;;9.27;2.63;;;19.80;99.90;;;;;;4936216;29;20215;-80
2023/09/19 12:56:50;;;;;;;7.47;2.92;;;19.70;99.90;;;;;;4942129;29;20214;-80
2023/09/19 12:59:17;;;;;;;6.82;3.13;;;19.60;99.90;;;;;;4936131;29;20286;-78
2023/09/19 13:01:46;;;;;;;7.50;2.92;;;19.60;99.90;;;;;;4933099;29;20222;-79
2023/09/19 13:04:18;;;;;;;7.28;2.70;;;19.50;99.90;;;;;;4941030;29;20699;-77